Priština, Kosovo

1:26 AM CET en Febrero 01, 2015 (GMT +0100)
KHMI Prishtina | Change Station
CLOSE
Current Station
Estación meteorológica personal
Location: Pristina,
Altura: 1886 ft
Estaciones meteorológicas cercanas

Alt 1886 ft 42.65 °N, 21.14 °E | Updated 11 minutes ago

Rain
Lluvia
33.8 ° F
Sensación térmica 34 ° F
N
0.7
Viento Variable Viento desde SO
Gusts 2.2 mph

Hoy
Alta -- | Baja -- ° F
--% Posibilidad de precipitaciones
Ayer
Alta -- | Baja -- ° F
Precip. -- pul
6:50 AM 4:48 PM
Gibosa creciente, 92% visible
Presión 29.27 pul
Visibilidad 6.2 Millas
Nubes Muy nublado 2300 ft
Nublado 4300 ft
Vientos helados 34 ° F
Punto de rocío 30 ° F
Humedad 86%
Precipitaciones 0.05 pul
Espesor de la nieve No disponible.
UV 0 de una escala de 12
Polen No disponible.
Calidad del aire No disponible.
Flu Activity No disponible.
METAR LWSK 010000Z 00000KT 9999 RA BKN023 OVC043 03/01 Q0991 NOSIG

More Conditions Fewer Conditions

Presión 29.27 pul
Visibilidad 6.2 Millas
Nubes Muy nublado 2300 ft
Nublado 4300 ft
Vientos helados 34 ° F
Punto de rocío 30 ° F
Humedad 86%
Precipitaciones 0.05 pul
Espesor de la nieve No disponible.
UV 0 de una escala de 12
Polen No disponible.
Calidad del aire No disponible.
Flu Activity No disponible.
METAR LWSK 010000Z 00000KT 9999 RA BKN023 OVC043 03/01 Q0991 NOSIG

More Conditions Fewer Conditions

10-Day Weather Forecast

Almanac

Astronomía

Feb. 01, 2015 Salida Puesta
Hora real
Crepúsculo civil
Crepúsculo náutico
Crepúsculo astronómico
Luna
Horas de luz
Horas de luz
Tomorrow will be .
, % of the Moon is Illuminated

Extremos de hoy

Máximos del país Bajas del país

Community

WunderPhotos

Upload Photos

1,792,255 ¡fotos cargadas!

WunderBlogs® & News

Nearby

Calidad del aire

  Calidad del aire Índice AQ Contaminante
Not available.

Grosos de nieve

Estación Profundido Altura

Actividad de terremotos

Ciudad Distance Mag. Tiempo y dato
Magnitud mínima muestra es 2,5.

Temperaturas de aguas costeras

Lugar Temperatura

Estaciones meteorológicas cercanas